Adams, OK (73901)

4:29 PM CDT on July 25, 2017 (GMT -0500)
Adams | | Change Station

Elev 2844 ft 36.75 °N, 101.08 °W | Updated 14 minutes ago

Partly Cloudy
Partly Cloudy
98.1 °F
Feels Like 99 °F
N
11.0
Wind Variable Wind from SE
Gusts 21.0 mph

Today
High -- | Low -- °F
--% Chance of Precip.
Yesterday
High -- | Low -- °F
Precip. -- in
Pressure 29.86 in
Visibility 10.0 miles
Clouds Scattered Clouds 9500 ft
Heat Index 99 °F
Dew Point 61 °F
Humidity 29%
Rainfall 0.00 in
Snow Depth Not available.
6:44 AM 8:56 PM
Waxing Crescent, 8% visible
METAR KLBL 252056Z AUTO 16017G23KT 10SM SCT095 37/17 A2998 RMK AO2 SLP112 6//// T03670172 58013
Pressure 29.86 in
Visibility 10.0 miles
Clouds Scattered Clouds 9500 ft
Heat Index 99 °F
Dew Point 61 °F
Humidity 29%
Rainfall 0.00 in
Snow Depth Not available.
6:44 AM 8:56 PM
Waxing Crescent, 8% visible
METAR KLBL 252056Z AUTO 16017G23KT 10SM SCT095 37/17 A2998 RMK AO2 SLP112 6//// T03670172 58013

Get Severe Weather Alerts

Thanks for signing up!

Be on the lookout for a verification email in your inbox.

You'll start receiving the daily forecast at 6 AM.

×

10-Day Weather Forecast

Almanac

Astronomy

Jul. 25, 2017 Rise Set
Actual Time
Civil Twilight
Nautical Twilight
Astronomical Twilight
Moon
Length of Visible Light
Length of Day
Tomorrow will be .
, % of the Moon is Illuminated

Today's Extremes

State Highs State Lows

Community

WunderPhotos

Category 6

Welcome to Category 6. This is the collective home for Weather Underground's featured writeups by Dr. Jeff Masters (right), Bob Henson (left), Chris Burt, and other regular contributors.

Nearby

Air Quality

  Air Quality AQ Index Pollutant
Not available.

Snow Depth

Station Depth Elevation

Earthquake Activity

City Distance Mag. Time & Date
Minimum magnitude displayed is 2.5.

Coastal Water Temperatures

Place Temperature

Stations

Nearby Weather Stations

Station Location Temp. Windchill Dew Point Humidity Wind Precip. Elev Updated Type
                   

Watches & Warnings

There are currently no watches in effect.